sensor_id;sensor_type;location;lat;lon;timestamp;temperature;humidity
18218;DHT22;9234;49.344;11.120;2023-01-16T00:01:29;1.20;99.90
18218;DHT22;9234;49.344;11.120;2023-01-16T00:03:58;1.10;99.90
18218;DHT22;9234;49.344;11.120;2023-01-16T00:06:26;1.10;99.90
18218;DHT22;9234;49.344;11.120;2023-01-16T00:08:54;1.00;99.90
18218;DHT22;9234;49.344;11.120;2023-01-16T00:11:22;1.00;99.90
18218;DHT22;9234;49.344;11.120;2023-01-16T00:13:50;1.00;99.90
18218;DHT22;9234;49.344;11.120;2023-01-16T00:16:19;1.00;99.90
18218;DHT22;9234;49.344;11.120;2023-01-16T00:18:49;0.90;99.90
18218;DHT22;9234;49.344;11.120;2023-01-16T00:21:17;0.90;99.90
18218;DHT22;9234;49.344;11.120;2023-01-16T00:23:46;0.90;99.90
18218;DHT22;9234;49.344;11.120;2023-01-16T00:26:15;0.90;99.90
18218;DHT22;9234;49.344;11.120;2023-01-16T00:28:43;0.90;99.90
18218;DHT22;9234;49.344;11.120;2023-01-16T00:31:11;0.90;99.90
18218;DHT22;9234;49.344;11.120;2023-01-16T00:33:39;0.80;99.90
18218;DHT22;9234;49.344;11.120;2023-01-16T00:36:11;0.80;99.90
18218;DHT22;9234;49.344;11.120;2023-01-16T00:38:40;0.80;99.90
18218;DHT22;9234;49.344;11.120;2023-01-16T00:41:08;0.80;99.90
18218;DHT22;9234;49.344;11.120;2023-01-16T00:43:36;0.70;99.90
18218;DHT22;9234;49.344;11.120;2023-01-16T00:46:04;0.70;99.90
18218;DHT22;9234;49.344;11.120;2023-01-16T00:48:33;0.70;99.90
18218;DHT22;9234;49.344;11.120;2023-01-16T00:51:01;0.70;99.90
18218;DHT22;9234;49.344;11.120;2023-01-16T00:53:30;0.60;99.90
18218;DHT22;9234;49.344;11.120;2023-01-16T00:55:58;0.60;99.90
18218;DHT22;9234;49.344;11.120;2023-01-16T00:58:27;0.50;99.90
18218;DHT22;9234;49.344;11.120;2023-01-16T01:00:55;0.50;99.90
18218;DHT22;9234;49.344;11.120;2023-01-16T01:03:23;0.50;99.90
18218;DHT22;9234;49.344;11.120;2023-01-16T01:05:51;0.40;99.90
18218;DHT22;9234;49.344;11.120;2023-01-16T01:08:20;0.40;99.90
18218;DHT22;9234;49.344;11.120;2023-01-16T01:10:49;0.40;99.90
18218;DHT22;9234;49.344;11.120;2023-01-16T01:13:17;0.30;99.90
18218;DHT22;9234;49.344;11.120;2023-01-16T01:15:45;0.30;99.90
18218;DHT22;9234;49.344;11.120;2023-01-16T01:18:14;0.30;99.90
18218;DHT22;9234;49.344;11.120;2023-01-16T01:20:42;0.30;99.90
18218;DHT22;9234;49.344;11.120;2023-01-16T01:23:10;0.30;99.90
18218;DHT22;9234;49.344;11.120;2023-01-16T01:25:38;0.20;99.90
18218;DHT22;9234;49.344;11.120;2023-01-16T01:28:07;0.20;99.90
18218;DHT22;9234;49.344;11.120;2023-01-16T01:30:37;0.20;99.90
18218;DHT22;9234;49.344;11.120;2023-01-16T01:33:05;0.20;99.90
18218;DHT22;9234;49.344;11.120;2023-01-16T01:35:35;0.20;99.90
18218;DHT22;9234;49.344;11.120;2023-01-16T01:38:04;0.10;99.90
18218;DHT22;9234;49.344;11.120;2023-01-16T01:40:33;0.20;99.90
18218;DHT22;9234;49.344;11.120;2023-01-16T01:43:01;0.10;99.90
18218;DHT22;9234;49.344;11.120;2023-01-16T01:45:31;0.20;99.90
18218;DHT22;9234;49.344;11.120;2023-01-16T01:48:03;0.10;99.90
18218;DHT22;9234;49.344;11.120;2023-01-16T01:50:49;0.10;99.90
18218;DHT22;9234;49.344;11.120;2023-01-16T01:53:25;0.20;99.90
18218;DHT22;9234;49.344;11.120;2023-01-16T01:55:57;0.20;99.90
18218;DHT22;9234;49.344;11.120;2023-01-16T01:58:30;0.30;99.90
18218;DHT22;9234;49.344;11.120;2023-01-16T02:01:02;0.30;99.90
18218;DHT22;9234;49.344;11.120;2023-01-16T02:03:34;0.30;99.90
18218;DHT22;9234;49.344;11.120;2023-01-16T02:06:12;0.30;99.90
18218;DHT22;9234;49.344;11.120;2023-01-16T02:08:43;0.40;99.90
18218;DHT22;9234;49.344;11.120;2023-01-16T02:11:15;0.40;99.90
18218;DHT22;9234;49.344;11.120;2023-01-16T02:13:54;0.40;99.90
18218;DHT22;9234;49.344;11.120;2023-01-16T02:16:26;0.40;99.90
18218;DHT22;9234;49.344;11.120;2023-01-16T02:19:33;0.40;99.90
18218;DHT22;9234;49.344;11.120;2023-01-16T02:25:45;0.40;99.90
18218;DHT22;9234;49.344;11.120;2023-01-16T02:28:43;0.40;99.90
18218;DHT22;9234;49.344;11.120;2023-01-16T02:31:38;0.30;99.90
18218;DHT22;9234;49.344;11.120;2023-01-16T02:34:27;0.30;99.90
18218;DHT22;9234;49.344;11.120;2023-01-16T02:37:15;0.30;99.90
18218;DHT22;9234;49.344;11.120;2023-01-16T02:40:02;0.30;99.90
18218;DHT22;9234;49.344;11.120;2023-01-16T02:42:42;0.30;99.90
18218;DHT22;9234;49.344;11.120;2023-01-16T02:45:18;0.30;99.90
18218;DHT22;9234;49.344;11.120;2023-01-16T02:47:57;0.30;99.90
18218;DHT22;9234;49.344;11.120;2023-01-16T02:50:32;0.30;99.90
18218;DHT22;9234;49.344;11.120;2023-01-16T02:53:12;0.40;99.90
18218;DHT22;9234;49.344;11.120;2023-01-16T02:55:47;0.40;99.90
18218;DHT22;9234;49.344;11.120;2023-01-16T02:58:20;0.40;99.90
18218;DHT22;9234;49.344;11.120;2023-01-16T03:00:51;0.50;99.90
18218;DHT22;9234;49.344;11.120;2023-01-16T03:03:38;0.50;99.90
18218;DHT22;9234;49.344;11.120;2023-01-16T03:06:32;0.60;99.90
18218;DHT22;9234;49.344;11.120;2023-01-16T03:09:24;0.70;99.90
18218;DHT22;9234;49.344;11.120;2023-01-16T03:12:12;0.80;99.90
18218;DHT22;9234;49.344;11.120;2023-01-16T03:14:55;0.90;99.90
18218;DHT22;9234;49.344;11.120;2023-01-16T03:17:38;0.90;99.90
18218;DHT22;9234;49.344;11.120;2023-01-16T03:20:26;0.90;99.90
18218;DHT22;9234;49.344;11.120;2023-01-16T03:23:08;1.00;99.90
18218;DHT22;9234;49.344;11.120;2023-01-16T03:25:43;1.00;99.90
18218;DHT22;9234;49.344;11.120;2023-01-16T03:28:22;1.00;99.90
18218;DHT22;9234;49.344;11.120;2023-01-16T03:31:05;1.00;99.90
18218;DHT22;9234;49.344;11.120;2023-01-16T03:33:46;1.10;99.90
18218;DHT22;9234;49.344;11.120;2023-01-16T03:36:30;1.10;99.90
18218;DHT22;9234;49.344;11.120;2023-01-16T03:39:06;1.10;99.90
18218;DHT22;9234;49.344;11.120;2023-01-16T03:41:38;1.10;99.90
18218;DHT22;9234;49.344;11.120;2023-01-16T03:44:13;1.10;99.90
18218;DHT22;9234;49.344;11.120;2023-01-16T03:46:51;1.10;99.90
18218;DHT22;9234;49.344;11.120;2023-01-16T03:49:23;1.10;99.90
18218;DHT22;9234;49.344;11.120;2023-01-16T03:51:57;1.10;99.90
18218;DHT22;9234;49.344;11.120;2023-01-16T03:54:34;1.00;99.90
18218;DHT22;9234;49.344;11.120;2023-01-16T03:57:12;1.00;99.90
18218;DHT22;9234;49.344;11.120;2023-01-16T03:59:45;1.00;99.90
18218;DHT22;9234;49.344;11.120;2023-01-16T04:02:16;0.90;99.90
18218;DHT22;9234;49.344;11.120;2023-01-16T04:04:52;0.90;99.90
18218;DHT22;9234;49.344;11.120;2023-01-16T04:07:30;0.90;99.90
18218;DHT22;9234;49.344;11.120;2023-01-16T04:10:05;0.90;99.90
18218;DHT22;9234;49.344;11.120;2023-01-16T04:12:36;0.80;99.90
18218;DHT22;9234;49.344;11.120;2023-01-16T04:15:09;0.80;99.90
18218;DHT22;9234;49.344;11.120;2023-01-16T04:17:39;0.80;99.90
18218;DHT22;9234;49.344;11.120;2023-01-16T04:20:09;0.80;99.90
18218;DHT22;9234;49.344;11.120;2023-01-16T04:22:39;0.80;99.90
18218;DHT22;9234;49.344;11.120;2023-01-16T04:25:09;0.80;99.90
18218;DHT22;9234;49.344;11.120;2023-01-16T04:27:37;0.80;99.90
18218;DHT22;9234;49.344;11.120;2023-01-16T04:30:06;0.80;99.90
18218;DHT22;9234;49.344;11.120;2023-01-16T04:32:35;0.80;99.90
18218;DHT22;9234;49.344;11.120;2023-01-16T04:35:05;0.80;99.90
18218;DHT22;9234;49.344;11.120;2023-01-16T04:37:33;0.80;99.90
18218;DHT22;9234;49.344;11.120;2023-01-16T04:40:04;0.80;99.90
18218;DHT22;9234;49.344;11.120;2023-01-16T04:42:35;0.80;99.90
18218;DHT22;9234;49.344;11.120;2023-01-16T04:45:04;0.80;99.90
18218;DHT22;9234;49.344;11.120;2023-01-16T04:47:33;0.80;99.90
18218;DHT22;9234;49.344;11.120;2023-01-16T04:50:01;0.80;99.90
18218;DHT22;9234;49.344;11.120;2023-01-16T04:52:29;0.80;99.90
18218;DHT22;9234;49.344;11.120;2023-01-16T04:54:58;0.80;99.90
18218;DHT22;9234;49.344;11.120;2023-01-16T04:57:27;0.80;99.90
18218;DHT22;9234;49.344;11.120;2023-01-16T04:59:55;0.70;99.90
18218;DHT22;9234;49.344;11.120;2023-01-16T05:02:26;0.70;99.90
18218;DHT22;9234;49.344;11.120;2023-01-16T05:04:54;0.70;99.90
18218;DHT22;9234;49.344;11.120;2023-01-16T05:07:22;0.70;99.90
18218;DHT22;9234;49.344;11.120;2023-01-16T05:09:53;0.60;99.90
18218;DHT22;9234;49.344;11.120;2023-01-16T05:12:21;0.60;99.90
18218;DHT22;9234;49.344;11.120;2023-01-16T05:14:50;0.60;99.90
18218;DHT22;9234;49.344;11.120;2023-01-16T05:17:19;0.60;99.90
18218;DHT22;9234;49.344;11.120;2023-01-16T05:19:51;0.50;99.90
18218;DHT22;9234;49.344;11.120;2023-01-16T05:22:19;0.50;99.90
18218;DHT22;9234;49.344;11.120;2023-01-16T05:24:47;0.50;99.90
18218;DHT22;9234;49.344;11.120;2023-01-16T05:27:15;0.50;99.90
18218;DHT22;9234;49.344;11.120;2023-01-16T05:29:43;0.50;99.90
18218;DHT22;9234;49.344;11.120;2023-01-16T05:32:13;0.50;99.90
18218;DHT22;9234;49.344;11.120;2023-01-16T05:34:41;0.50;99.90
18218;DHT22;9234;49.344;11.120;2023-01-16T05:37:12;0.50;99.90
18218;DHT22;9234;49.344;11.120;2023-01-16T05:39:40;0.50;99.90
18218;DHT22;9234;49.344;11.120;2023-01-16T05:42:08;0.50;99.90
18218;DHT22;9234;49.344;11.120;2023-01-16T05:44:47;0.50;99.90
18218;DHT22;9234;49.344;11.120;2023-01-16T05:47:18;0.50;99.90
18218;DHT22;9234;49.344;11.120;2023-01-16T05:49:46;0.50;99.90
18218;DHT22;9234;49.344;11.120;2023-01-16T05:52:15;0.50;99.90
18218;DHT22;9234;49.344;11.120;2023-01-16T05:54:43;0.50;99.90
18218;DHT22;9234;49.344;11.120;2023-01-16T05:57:11;0.50;99.90
18218;DHT22;9234;49.344;11.120;2023-01-16T05:59:40;0.50;99.90
18218;DHT22;9234;49.344;11.120;2023-01-16T06:02:12;0.50;99.90
18218;DHT22;9234;49.344;11.120;2023-01-16T06:04:41;0.50;99.90
18218;DHT22;9234;49.344;11.120;2023-01-16T06:07:10;0.50;99.90
18218;DHT22;9234;49.344;11.120;2023-01-16T06:09:39;0.50;99.90
18218;DHT22;9234;49.344;11.120;2023-01-16T06:12:10;0.50;99.90
18218;DHT22;9234;49.344;11.120;2023-01-16T06:14:41;0.50;99.90
18218;DHT22;9234;49.344;11.120;2023-01-16T06:17:10;0.40;99.90
18218;DHT22;9234;49.344;11.120;2023-01-16T06:19:42;0.40;99.90
18218;DHT22;9234;49.344;11.120;2023-01-16T06:22:11;0.40;99.90
18218;DHT22;9234;49.344;11.120;2023-01-16T06:24:40;0.40;99.90
18218;DHT22;9234;49.344;11.120;2023-01-16T06:27:08;0.40;99.90
18218;DHT22;9234;49.344;11.120;2023-01-16T06:29:36;0.40;99.90
18218;DHT22;9234;49.344;11.120;2023-01-16T06:32:06;0.30;99.90
18218;DHT22;9234;49.344;11.120;2023-01-16T06:34:34;0.30;99.90
18218;DHT22;9234;49.344;11.120;2023-01-16T06:37:04;0.30;99.90
18218;DHT22;9234;49.344;11.120;2023-01-16T06:39:32;0.30;99.90
18218;DHT22;9234;49.344;11.120;2023-01-16T06:42:00;0.20;99.90
18218;DHT22;9234;49.344;11.120;2023-01-16T06:44:30;0.20;99.90
18218;DHT22;9234;49.344;11.120;2023-01-16T06:46:58;0.20;99.90
18218;DHT22;9234;49.344;11.120;2023-01-16T06:49:27;0.20;99.90
18218;DHT22;9234;49.344;11.120;2023-01-16T06:51:55;0.20;99.90
18218;DHT22;9234;49.344;11.120;2023-01-16T06:54:25;0.10;99.90
18218;DHT22;9234;49.344;11.120;2023-01-16T06:56:53;0.10;99.90
18218;DHT22;9234;49.344;11.120;2023-01-16T06:59:21;0.10;99.90
18218;DHT22;9234;49.344;11.120;2023-01-16T07:01:49;0.10;99.90
18218;DHT22;9234;49.344;11.120;2023-01-16T07:04:17;0.10;99.90
18218;DHT22;9234;49.344;11.120;2023-01-16T07:06:46;0.00;99.90
18218;DHT22;9234;49.344;11.120;2023-01-16T07:09:16;0.00;99.90
18218;DHT22;9234;49.344;11.120;2023-01-16T07:11:46;0.00;99.90
18218;DHT22;9234;49.344;11.120;2023-01-16T07:14:14;0.10;99.90
18218;DHT22;9234;49.344;11.120;2023-01-16T07:17:00;0.10;99.90
18218;DHT22;9234;49.344;11.120;2023-01-16T07:19:46;0.10;99.90
18218;DHT22;9234;49.344;11.120;2023-01-16T07:22:37;0.10;99.90
18218;DHT22;9234;49.344;11.120;2023-01-16T07:25:13;0.10;99.90
18218;DHT22;9234;49.344;11.120;2023-01-16T07:27:46;0.10;99.90
18218;DHT22;9234;49.344;11.120;2023-01-16T07:30:16;0.10;99.90
18218;DHT22;9234;49.344;11.120;2023-01-16T07:32:45;0.10;99.90
18218;DHT22;9234;49.344;11.120;2023-01-16T07:35:14;0.20;99.90
18218;DHT22;9234;49.344;11.120;2023-01-16T07:37:42;0.20;99.90
18218;DHT22;9234;49.344;11.120;2023-01-16T07:40:13;0.20;99.90
18218;DHT22;9234;49.344;11.120;2023-01-16T07:42:41;0.30;99.90
18218;DHT22;9234;49.344;11.120;2023-01-16T07:45:11;0.30;99.90
18218;DHT22;9234;49.344;11.120;2023-01-16T07:47:39;0.30;99.90
18218;DHT22;9234;49.344;11.120;2023-01-16T07:50:08;0.40;99.90
18218;DHT22;9234;49.344;11.120;2023-01-16T07:52:37;0.40;99.90
18218;DHT22;9234;49.344;11.120;2023-01-16T07:55:06;0.40;99.90
18218;DHT22;9234;49.344;11.120;2023-01-16T07:57:35;0.50;99.90
18218;DHT22;9234;49.344;11.120;2023-01-16T08:00:05;0.50;99.90
18218;DHT22;9234;49.344;11.120;2023-01-16T08:02:41;0.60;99.90
18218;DHT22;9234;49.344;11.120;2023-01-16T08:05:10;0.70;99.90
18218;DHT22;9234;49.344;11.120;2023-01-16T08:07:38;0.70;99.90
18218;DHT22;9234;49.344;11.120;2023-01-16T08:10:08;0.80;99.90
18218;DHT22;9234;49.344;11.120;2023-01-16T08:12:37;0.90;99.90
18218;DHT22;9234;49.344;11.120;2023-01-16T08:15:07;0.90;99.90
18218;DHT22;9234;49.344;11.120;2023-01-16T08:17:39;1.00;99.90
18218;DHT22;9234;49.344;11.120;2023-01-16T08:20:09;1.10;99.90
18218;DHT22;9234;49.344;11.120;2023-01-16T08:22:42;1.10;99.90
18218;DHT22;9234;49.344;11.120;2023-01-16T08:25:11;1.20;99.90
18218;DHT22;9234;49.344;11.120;2023-01-16T08:27:40;1.30;99.90
18218;DHT22;9234;49.344;11.120;2023-01-16T08:30:10;1.40;99.90
18218;DHT22;9234;49.344;11.120;2023-01-16T08:32:41;1.50;99.90
18218;DHT22;9234;49.344;11.120;2023-01-16T08:35:10;1.60;99.90
18218;DHT22;9234;49.344;11.120;2023-01-16T08:37:38;1.70;99.90
18218;DHT22;9234;49.344;11.120;2023-01-16T08:40:08;1.80;99.90
18218;DHT22;9234;49.344;11.120;2023-01-16T08:42:37;1.80;99.90
18218;DHT22;9234;49.344;11.120;2023-01-16T08:45:23;1.90;99.90
18218;DHT22;9234;49.344;11.120;2023-01-16T08:48:10;2.00;99.90
18218;DHT22;9234;49.344;11.120;2023-01-16T08:50:57;2.10;99.90
18218;DHT22;9234;49.344;11.120;2023-01-16T08:53:43;2.20;99.90
18218;DHT22;9234;49.344;11.120;2023-01-16T08:56:11;2.30;99.90
18218;DHT22;9234;49.344;11.120;2023-01-16T08:58:39;2.40;99.90
18218;DHT22;9234;49.344;11.120;2023-01-16T09:01:07;2.50;99.90
18218;DHT22;9234;49.344;11.120;2023-01-16T09:03:37;2.60;99.90
18218;DHT22;9234;49.344;11.120;2023-01-16T09:06:06;2.70;99.90
18218;DHT22;9234;49.344;11.120;2023-01-16T09:08:34;2.80;99.90
18218;DHT22;9234;49.344;11.120;2023-01-16T09:11:02;2.90;99.90
18218;DHT22;9234;49.344;11.120;2023-01-16T09:13:48;3.00;99.90
18218;DHT22;9234;49.344;11.120;2023-01-16T09:16:17;3.10;99.90
18218;DHT22;9234;49.344;11.120;2023-01-16T09:18:48;3.20;99.90
18218;DHT22;9234;49.344;11.120;2023-01-16T09:21:17;3.30;99.90
18218;DHT22;9234;49.344;11.120;2023-01-16T09:23:46;3.40;99.90
18218;DHT22;9234;49.344;11.120;2023-01-16T09:26:14;3.40;99.90
18218;DHT22;9234;49.344;11.120;2023-01-16T09:28:43;3.50;99.90
18218;DHT22;9234;49.344;11.120;2023-01-16T09:31:11;3.60;99.90
18218;DHT22;9234;49.344;11.120;2023-01-16T09:33:40;3.60;99.90
18218;DHT22;9234;49.344;11.120;2023-01-16T09:36:09;3.70;99.90
18218;DHT22;9234;49.344;11.120;2023-01-16T09:38:38;3.70;99.90
18218;DHT22;9234;49.344;11.120;2023-01-16T09:41:12;3.80;99.90
18218;DHT22;9234;49.344;11.120;2023-01-16T09:44:06;3.90;99.90
18218;DHT22;9234;49.344;11.120;2023-01-16T09:46:38;3.90;99.90
18218;DHT22;9234;49.344;11.120;2023-01-16T09:49:19;4.00;99.90
18218;DHT22;9234;49.344;11.120;2023-01-16T09:51:56;4.10;99.90
18218;DHT22;9234;49.344;11.120;2023-01-16T09:54:51;4.20;99.90
18218;DHT22;9234;49.344;11.120;2023-01-16T09:57:40;4.20;99.90
18218;DHT22;9234;49.344;11.120;2023-01-16T10:00:30;4.30;99.90
18218;DHT22;9234;49.344;11.120;2023-01-16T10:03:01;4.40;99.90
18218;DHT22;9234;49.344;11.120;2023-01-16T10:05:36;4.40;99.90
18218;DHT22;9234;49.344;11.120;2023-01-16T10:08:17;4.50;99.90
18218;DHT22;9234;49.344;11.120;2023-01-16T10:10:55;4.60;99.90
18218;DHT22;9234;49.344;11.120;2023-01-16T10:13:48;4.60;99.90
18218;DHT22;9234;49.344;11.120;2023-01-16T10:16:39;4.70;99.90
18218;DHT22;9234;49.344;11.120;2023-01-16T10:19:30;4.80;99.90
18218;DHT22;9234;49.344;11.120;2023-01-16T10:22:22;4.90;99.90
18218;DHT22;9234;49.344;11.120;2023-01-16T10:25:18;5.00;99.90
18218;DHT22;9234;49.344;11.120;2023-01-16T10:27:58;5.10;99.90
18218;DHT22;9234;49.344;11.120;2023-01-16T10:30:44;5.10;99.90
18218;DHT22;9234;49.344;11.120;2023-01-16T10:33:27;5.20;99.90
18218;DHT22;9234;49.344;11.120;2023-01-16T10:36:09;5.40;99.90
18218;DHT22;9234;49.344;11.120;2023-01-16T10:38:43;5.50;99.90
18218;DHT22;9234;49.344;11.120;2023-01-16T10:41:21;5.60;99.90
18218;DHT22;9234;49.344;11.120;2023-01-16T10:44:24;5.70;99.90
18218;DHT22;9234;49.344;11.120;2023-01-16T10:47:15;5.80;99.90
18218;DHT22;9234;49.344;11.120;2023-01-16T10:50:02;5.90;99.90
18218;DHT22;9234;49.344;11.120;2023-01-16T10:52:31;6.00;99.90
18218;DHT22;9234;49.344;11.120;2023-01-16T10:55:01;6.20;99.90
18218;DHT22;9234;49.344;11.120;2023-01-16T10:57:32;6.30;99.90
18218;DHT22;9234;49.344;11.120;2023-01-16T11:00:04;6.30;99.90
18218;DHT22;9234;49.344;11.120;2023-01-16T11:02:38;6.40;99.90
18218;DHT22;9234;49.344;11.120;2023-01-16T11:05:24;6.50;99.90
18218;DHT22;9234;49.344;11.120;2023-01-16T11:07:56;6.50;99.90
18218;DHT22;9234;49.344;11.120;2023-01-16T11:10:31;6.50;99.90
18218;DHT22;9234;49.344;11.120;2023-01-16T11:13:01;6.50;99.90
18218;DHT22;9234;49.344;11.120;2023-01-16T11:16:03;6.50;99.90
18218;DHT22;9234;49.344;11.120;2023-01-16T11:18:54;6.60;99.90
18218;DHT22;9234;49.344;11.120;2023-01-16T11:21:25;6.60;99.90
18218;DHT22;9234;49.344;11.120;2023-01-16T11:24:00;6.80;99.90
18218;DHT22;9234;49.344;11.120;2023-01-16T11:26:31;6.90;99.90
18218;DHT22;9234;49.344;11.120;2023-01-16T11:29:01;7.10;99.90
18218;DHT22;9234;49.344;11.120;2023-01-16T11:31:31;7.20;99.90
18218;DHT22;9234;49.344;11.120;2023-01-16T11:34:01;7.30;99.90
18218;DHT22;9234;49.344;11.120;2023-01-16T11:36:33;7.40;99.90
18218;DHT22;9234;49.344;11.120;2023-01-16T11:39:04;7.50;99.90
18218;DHT22;9234;49.344;11.120;2023-01-16T11:41:36;7.50;99.90
18218;DHT22;9234;49.344;11.120;2023-01-16T11:44:17;7.50;99.90
18218;DHT22;9234;49.344;11.120;2023-01-16T11:47:04;7.60;99.90
18218;DHT22;9234;49.344;11.120;2023-01-16T11:49:35;7.50;99.90
18218;DHT22;9234;49.344;11.120;2023-01-16T11:52:05;7.50;99.90
18218;DHT22;9234;49.344;11.120;2023-01-16T11:54:40;7.40;99.90
18218;DHT22;9234;49.344;11.120;2023-01-16T11:57:27;7.30;99.90
18218;DHT22;9234;49.344;11.120;2023-01-16T12:00:25;7.30;99.90
18218;DHT22;9234;49.344;11.120;2023-01-16T12:03:39;7.30;99.90
18218;DHT22;9234;49.344;11.120;2023-01-16T12:06:47;7.30;99.90
18218;DHT22;9234;49.344;11.120;2023-01-16T12:09:48;7.30;99.90
18218;DHT22;9234;49.344;11.120;2023-01-16T12:12:28;7.30;99.90
18218;DHT22;9234;49.344;11.120;2023-01-16T12:15:22;7.20;99.90
18218;DHT22;9234;49.344;11.120;2023-01-16T12:18:10;7.30;99.90
18218;DHT22;9234;49.344;11.120;2023-01-16T12:20:56;7.20;99.90
18218;DHT22;9234;49.344;11.120;2023-01-16T12:23:53;7.30;99.90
18218;DHT22;9234;49.344;11.120;2023-01-16T12:26:46;7.30;99.90
18218;DHT22;9234;49.344;11.120;2023-01-16T12:29:41;7.40;99.90
18218;DHT22;9234;49.344;11.120;2023-01-16T12:32:36;7.50;99.90
18218;DHT22;9234;49.344;11.120;2023-01-16T12:35:33;7.60;99.90
18218;DHT22;9234;49.344;11.120;2023-01-16T12:38:15;7.70;99.90
18218;DHT22;9234;49.344;11.120;2023-01-16T12:41:12;7.70;99.90
18218;DHT22;9234;49.344;11.120;2023-01-16T12:44:13;7.70;99.90
18218;DHT22;9234;49.344;11.120;2023-01-16T12:47:15;7.60;99.90
18218;DHT22;9234;49.344;11.120;2023-01-16T12:50:09;7.60;99.90
18218;DHT22;9234;49.344;11.120;2023-01-16T12:53:03;7.50;99.90
18218;DHT22;9234;49.344;11.120;2023-01-16T12:55:49;7.50;99.90
18218;DHT22;9234;49.344;11.120;2023-01-16T12:58:36;7.50;99.90
18218;DHT22;9234;49.344;11.120;2023-01-16T13:01:12;7.50;99.90
18218;DHT22;9234;49.344;11.120;2023-01-16T13:03:50;7.50;99.90
18218;DHT22;9234;49.344;11.120;2023-01-16T13:06:33;7.50;99.90
18218;DHT22;9234;49.344;11.120;2023-01-16T13:09:11;7.50;99.90
18218;DHT22;9234;49.344;11.120;2023-01-16T13:11:55;7.40;99.90
18218;DHT22;9234;49.344;11.120;2023-01-16T13:14:48;7.40;99.90
18218;DHT22;9234;49.344;11.120;2023-01-16T13:17:23;7.30;99.90
18218;DHT22;9234;49.344;11.120;2023-01-16T13:20:01;7.30;99.90
18218;DHT22;9234;49.344;11.120;2023-01-16T13:22:38;7.20;99.90
18218;DHT22;9234;49.344;11.120;2023-01-16T13:25:17;7.20;99.90
18218;DHT22;9234;49.344;11.120;2023-01-16T13:27:54;7.10;99.90
18218;DHT22;9234;49.344;11.120;2023-01-16T13:30:26;7.10;99.90
18218;DHT22;9234;49.344;11.120;2023-01-16T13:32:57;7.00;99.90
18218;DHT22;9234;49.344;11.120;2023-01-16T13:35:35;7.00;99.90
18218;DHT22;9234;49.344;11.120;2023-01-16T13:38:28;6.90;99.90
18218;DHT22;9234;49.344;11.120;2023-01-16T13:41:14;6.90;99.90
18218;DHT22;9234;49.344;11.120;2023-01-16T13:43:50;6.80;99.90
18218;DHT22;9234;49.344;11.120;2023-01-16T13:46:41;6.80;99.90
18218;DHT22;9234;49.344;11.120;2023-01-16T13:49:18;6.80;99.90
18218;DHT22;9234;49.344;11.120;2023-01-16T13:51:52;6.70;99.90
18218;DHT22;9234;49.344;11.120;2023-01-16T13:54:24;6.70;99.90
18218;DHT22;9234;49.344;11.120;2023-01-16T13:56:59;6.70;99.90
18218;DHT22;9234;49.344;11.120;2023-01-16T13:59:40;6.70;99.90
18218;DHT22;9234;49.344;11.120;2023-01-16T14:02:24;6.60;99.90
18218;DHT22;9234;49.344;11.120;2023-01-16T14:08:46;6.60;99.90
18218;DHT22;9234;49.344;11.120;2023-01-16T14:11:38;6.50;99.90
18218;DHT22;9234;49.344;11.120;2023-01-16T14:18:02;6.50;99.90
18218;DHT22;9234;49.344;11.120;2023-01-16T14:20:44;6.50;99.90
18218;DHT22;9234;49.344;11.120;2023-01-16T14:23:22;6.40;99.90
18218;DHT22;9234;49.344;11.120;2023-01-16T14:26:17;6.40;99.90
18218;DHT22;9234;49.344;11.120;2023-01-16T14:28:49;6.40;99.90
18218;DHT22;9234;49.344;11.120;2023-01-16T14:31:23;6.40;99.90
18218;DHT22;9234;49.344;11.120;2023-01-16T14:33:55;6.30;99.90
18218;DHT22;9234;49.344;11.120;2023-01-16T14:36:26;6.30;99.90
18218;DHT22;9234;49.344;11.120;2023-01-16T14:38:55;6.30;99.90
18218;DHT22;9234;49.344;11.120;2023-01-16T14:41:29;6.30;99.90
18218;DHT22;9234;49.344;11.120;2023-01-16T14:44:18;6.30;99.90
18218;DHT22;9234;49.344;11.120;2023-01-16T14:47:09;6.20;99.90
18218;DHT22;9234;49.344;11.120;2023-01-16T14:50:10;6.20;99.90
18218;DHT22;9234;49.344;11.120;2023-01-16T14:53:16;6.20;99.90
18218;DHT22;9234;49.344;11.120;2023-01-16T14:56:21;6.10;99.90
18218;DHT22;9234;49.344;11.120;2023-01-16T14:58:58;6.10;99.90
18218;DHT22;9234;49.344;11.120;2023-01-16T15:01:37;6.10;99.90
18218;DHT22;9234;49.344;11.120;2023-01-16T15:04:30;6.00;99.90
18218;DHT22;9234;49.344;11.120;2023-01-16T15:07:05;6.00;99.90
18218;DHT22;9234;49.344;11.120;2023-01-16T15:09:37;6.00;99.90
18218;DHT22;9234;49.344;11.120;2023-01-16T15:12:11;5.90;99.90
18218;DHT22;9234;49.344;11.120;2023-01-16T15:14:53;5.90;99.90
18218;DHT22;9234;49.344;11.120;2023-01-16T15:17:28;5.90;99.90
18218;DHT22;9234;49.344;11.120;2023-01-16T15:20:23;5.90;99.90
18218;DHT22;9234;49.344;11.120;2023-01-16T15:23:20;5.80;99.90
18218;DHT22;9234;49.344;11.120;2023-01-16T15:29:19;5.70;99.90
18218;DHT22;9234;49.344;11.120;2023-01-16T15:32:11;5.70;99.90
18218;DHT22;9234;49.344;11.120;2023-01-16T15:34:45;5.60;99.90
18218;DHT22;9234;49.344;11.120;2023-01-16T15:37:21;5.60;99.90
18218;DHT22;9234;49.344;11.120;2023-01-16T15:39:51;5.60;99.90
18218;DHT22;9234;49.344;11.120;2023-01-16T15:42:21;5.60;99.90
18218;DHT22;9234;49.344;11.120;2023-01-16T15:45:16;5.50;99.90
18218;DHT22;9234;49.344;11.120;2023-01-16T15:48:16;5.40;99.90
18218;DHT22;9234;49.344;11.120;2023-01-16T15:50:57;5.40;99.90
18218;DHT22;9234;49.344;11.120;2023-01-16T15:53:31;5.40;99.90
18218;DHT22;9234;49.344;11.120;2023-01-16T15:56:03;5.30;99.90
18218;DHT22;9234;49.344;11.120;2023-01-16T15:58:32;5.30;99.90
18218;DHT22;9234;49.344;11.120;2023-01-16T16:01:27;5.30;99.90
18218;DHT22;9234;49.344;11.120;2023-01-16T16:04:00;5.20;99.90
18218;DHT22;9234;49.344;11.120;2023-01-16T16:06:30;5.20;99.90
18218;DHT22;9234;49.344;11.120;2023-01-16T16:09:01;5.20;99.90
18218;DHT22;9234;49.344;11.120;2023-01-16T16:11:31;5.20;99.90
18218;DHT22;9234;49.344;11.120;2023-01-16T16:14:21;5.20;99.90
18218;DHT22;9234;49.344;11.120;2023-01-16T16:17:23;5.20;99.90
18218;DHT22;9234;49.344;11.120;2023-01-16T16:20:32;5.30;99.90
18218;DHT22;9234;49.344;11.120;2023-01-16T16:23:09;5.30;99.90
18218;DHT22;9234;49.344;11.120;2023-01-16T16:25:45;5.40;99.90
18218;DHT22;9234;49.344;11.120;2023-01-16T16:28:21;5.40;99.90
18218;DHT22;9234;49.344;11.120;2023-01-16T16:30:57;5.30;99.90
18218;DHT22;9234;49.344;11.120;2023-01-16T16:33:28;5.30;99.90
18218;DHT22;9234;49.344;11.120;2023-01-16T16:36:03;5.30;99.90
18218;DHT22;9234;49.344;11.120;2023-01-16T16:38:41;5.30;99.90
18218;DHT22;9234;49.344;11.120;2023-01-16T16:41:45;5.20;99.90
18218;DHT22;9234;49.344;11.120;2023-01-16T16:44:38;5.20;99.90
18218;DHT22;9234;49.344;11.120;2023-01-16T16:47:24;5.20;99.90
18218;DHT22;9234;49.344;11.120;2023-01-16T16:49:54;5.20;99.90
18218;DHT22;9234;49.344;11.120;2023-01-16T16:52:29;5.20;99.90
18218;DHT22;9234;49.344;11.120;2023-01-16T16:55:02;5.20;99.90
18218;DHT22;9234;49.344;11.120;2023-01-16T16:57:40;5.20;99.90